sensor_id;sensor_type;location;lat;lon;timestamp;pressure;altitude;pressure_sealevel;temperature;humidity
78892;BME280;68368;51.728;5.248;2023-05-27T00:01:05;102957.70;;;8.92;72.87
78892;BME280;68368;51.728;5.248;2023-05-27T00:03:09;102956.56;;;8.90;72.56
78892;BME280;68368;51.728;5.248;2023-05-27T00:05:12;102953.46;;;8.86;72.78
78892;BME280;68368;51.728;5.248;2023-05-27T00:07:16;102955.00;;;8.84;73.13
78892;BME280;68368;51.728;5.248;2023-05-27T00:09:20;102953.90;;;8.83;73.14
78892;BME280;68368;51.728;5.248;2023-05-27T00:11:24;102951.39;;;8.82;73.13
78892;BME280;68368;51.728;5.248;2023-05-27T00:13:28;102955.02;;;8.79;73.20
78892;BME280;68368;51.728;5.248;2023-05-27T00:15:31;102950.50;;;8.76;72.92
78892;BME280;68368;51.728;5.248;2023-05-27T00:17:34;102949.32;;;8.73;73.14
78892;BME280;68368;51.728;5.248;2023-05-27T00:19:38;102942.23;;;8.67;73.12
78892;BME280;68368;51.728;5.248;2023-05-27T00:21:42;102947.13;;;8.65;73.01
78892;BME280;68368;51.728;5.248;2023-05-27T00:23:50;102941.38;;;8.62;73.43
78892;BME280;68368;51.728;5.248;2023-05-27T00:25:54;102946.25;;;8.59;73.79
78892;BME280;68368;51.728;5.248;2023-05-27T00:27:58;102944.40;;;8.57;73.57
78892;BME280;68368;51.728;5.248;2023-05-27T00:30:02;102944.13;;;8.54;73.78
78892;BME280;68368;51.728;5.248;2023-05-27T00:32:07;102942.24;;;8.51;73.53
78892;BME280;68368;51.728;5.248;2023-05-27T00:34:11;102944.78;;;8.47;74.06
78892;BME280;68368;51.728;5.248;2023-05-27T00:36:16;102936.00;;;8.44;74.30
78892;BME280;68368;51.728;5.248;2023-05-27T00:38:21;102937.02;;;8.42;74.23
78892;BME280;68368;51.728;5.248;2023-05-27T00:40:27;102934.08;;;8.39;74.05
78892;BME280;68368;51.728;5.248;2023-05-27T00:42:34;102926.80;;;8.34;74.87
78892;BME280;68368;51.728;5.248;2023-05-27T00:44:37;102933.10;;;8.32;74.82
78892;BME280;68368;51.728;5.248;2023-05-27T00:46:41;102931.21;;;8.28;75.02
78892;BME280;68368;51.728;5.248;2023-05-27T00:48:45;102928.84;;;8.26;75.58
78892;BME280;68368;51.728;5.248;2023-05-27T00:50:50;102926.30;;;8.24;75.14
78892;BME280;68368;51.728;5.248;2023-05-27T00:52:53;102930.80;;;8.21;75.05
78892;BME280;68368;51.728;5.248;2023-05-27T00:54:57;102930.15;;;8.18;75.01
78892;BME280;68368;51.728;5.248;2023-05-27T00:57:02;102931.10;;;8.14;75.98
78892;BME280;68368;51.728;5.248;2023-05-27T00:59:08;102928.95;;;8.13;76.07
78892;BME280;68368;51.728;5.248;2023-05-27T01:01:12;102931.40;;;8.12;76.06
78892;BME280;68368;51.728;5.248;2023-05-27T01:03:15;102926.54;;;8.10;76.64
78892;BME280;68368;51.728;5.248;2023-05-27T01:05:20;102921.69;;;8.08;76.32
78892;BME280;68368;51.728;5.248;2023-05-27T01:07:32;102919.13;;;8.05;76.66
78892;BME280;68368;51.728;5.248;2023-05-27T01:09:47;102916.36;;;8.02;76.68
78892;BME280;68368;51.728;5.248;2023-05-27T01:12:05;102902.14;;;7.94;76.88
78892;BME280;68368;51.728;5.248;2023-05-27T01:14:14;102912.18;;;7.99;76.83
78892;BME280;68368;51.728;5.248;2023-05-27T01:16:18;102915.61;;;7.96;76.89
78892;BME280;68368;51.728;5.248;2023-05-27T01:18:23;102919.59;;;7.93;77.28
78892;BME280;68368;51.728;5.248;2023-05-27T01:20:27;102915.23;;;7.89;77.25
78892;BME280;68368;51.728;5.248;2023-05-27T01:22:32;102913.38;;;7.87;77.45
78892;BME280;68368;51.728;5.248;2023-05-27T01:24:36;102917.26;;;7.87;77.15
78892;BME280;68368;51.728;5.248;2023-05-27T01:26:40;102913.10;;;7.84;77.47
78892;BME280;68368;51.728;5.248;2023-05-27T01:28:44;102914.42;;;7.82;77.78
78892;BME280;68368;51.728;5.248;2023-05-27T01:30:48;102910.96;;;7.79;77.99
78892;BME280;68368;51.728;5.248;2023-05-27T01:32:55;102909.80;;;7.76;77.97
78892;BME280;68368;51.728;5.248;2023-05-27T01:35:05;102910.89;;;7.71;78.03
78892;BME280;68368;51.728;5.248;2023-05-27T01:37:13;102907.30;;;7.69;78.43
78892;BME280;68368;51.728;5.248;2023-05-27T01:39:19;102906.48;;;7.67;78.02
78892;BME280;68368;51.728;5.248;2023-05-27T01:41:23;102912.02;;;7.63;78.39
78892;BME280;68368;51.728;5.248;2023-05-27T01:43:27;102900.08;;;7.60;78.44
78892;BME280;68368;51.728;5.248;2023-05-27T01:45:31;102899.72;;;7.55;78.71
78892;BME280;68368;51.728;5.248;2023-05-27T01:47:35;102905.09;;;7.52;79.03
78892;BME280;68368;51.728;5.248;2023-05-27T01:49:38;102903.77;;;7.50;78.42
78892;BME280;68368;51.728;5.248;2023-05-27T01:51:44;102910.36;;;7.46;78.69
78892;BME280;68368;51.728;5.248;2023-05-27T01:53:48;102915.19;;;7.43;78.75
78892;BME280;68368;51.728;5.248;2023-05-27T01:55:51;102918.98;;;7.40;79.06
78892;BME280;68368;51.728;5.248;2023-05-27T01:57:54;102912.83;;;7.36;79.00
78892;BME280;68368;51.728;5.248;2023-05-27T01:59:58;102912.72;;;7.33;79.53
78892;BME280;68368;51.728;5.248;2023-05-27T02:02:06;102911.96;;;7.32;79.42
78892;BME280;68368;51.728;5.248;2023-05-27T02:04:09;102913.35;;;7.31;79.96
78892;BME280;68368;51.728;5.248;2023-05-27T02:06:12;102913.51;;;7.31;80.01
78892;BME280;68368;51.728;5.248;2023-05-27T02:08:17;102914.30;;;7.28;80.14
78892;BME280;68368;51.728;5.248;2023-05-27T02:10:21;102915.83;;;7.26;80.09
78892;BME280;68368;51.728;5.248;2023-05-27T02:12:24;102915.08;;;7.25;80.02
78892;BME280;68368;51.728;5.248;2023-05-27T02:14:27;102913.98;;;7.24;80.03
78892;BME280;68368;51.728;5.248;2023-05-27T02:16:30;102909.14;;;7.22;80.03
78892;BME280;68368;51.728;5.248;2023-05-27T02:18:35;102914.98;;;7.23;79.82
78892;BME280;68368;51.728;5.248;2023-05-27T02:20:38;102906.23;;;7.20;80.20
78892;BME280;68368;51.728;5.248;2023-05-27T02:22:42;102905.97;;;7.18;80.47
78892;BME280;68368;51.728;5.248;2023-05-27T02:24:45;102903.74;;;7.15;80.55
78892;BME280;68368;51.728;5.248;2023-05-27T02:26:49;102905.44;;;7.13;80.62
78892;BME280;68368;51.728;5.248;2023-05-27T02:28:55;102906.48;;;7.13;81.23
78892;BME280;68368;51.728;5.248;2023-05-27T02:30:58;102909.48;;;7.13;81.26
78892;BME280;68368;51.728;5.248;2023-05-27T02:33:02;102907.57;;;7.13;80.94
78892;BME280;68368;51.728;5.248;2023-05-27T02:35:06;102910.54;;;7.12;81.38
78892;BME280;68368;51.728;5.248;2023-05-27T02:37:10;102905.92;;;7.12;81.19
78892;BME280;68368;51.728;5.248;2023-05-27T02:39:13;102912.76;;;7.11;81.53
78892;BME280;68368;51.728;5.248;2023-05-27T02:41:17;102911.23;;;7.12;81.64
78892;BME280;68368;51.728;5.248;2023-05-27T02:43:21;102912.70;;;7.14;82.08
78892;BME280;68368;51.728;5.248;2023-05-27T02:45:25;102908.70;;;7.15;81.79
78892;BME280;68368;51.728;5.248;2023-05-27T02:47:28;102915.63;;;7.16;81.95
78892;BME280;68368;51.728;5.248;2023-05-27T02:49:32;102910.28;;;7.15;81.74
78892;BME280;68368;51.728;5.248;2023-05-27T02:51:35;102913.14;;;7.16;81.78
78892;BME280;68368;51.728;5.248;2023-05-27T02:53:38;102912.25;;;7.16;81.44
78892;BME280;68368;51.728;5.248;2023-05-27T02:55:44;102921.04;;;7.15;81.53
78892;BME280;68368;51.728;5.248;2023-05-27T02:57:47;102916.78;;;7.14;82.11
78892;BME280;68368;51.728;5.248;2023-05-27T02:59:52;102918.15;;;7.13;81.74
78892;BME280;68368;51.728;5.248;2023-05-27T03:01:55;102919.30;;;7.11;81.75
78892;BME280;68368;51.728;5.248;2023-05-27T03:03:59;102919.73;;;7.08;81.79
78892;BME280;68368;51.728;5.248;2023-05-27T03:06:04;102918.32;;;7.08;82.11
78892;BME280;68368;51.728;5.248;2023-05-27T03:08:08;102919.75;;;7.09;81.87
78892;BME280;68368;51.728;5.248;2023-05-27T03:10:11;102919.52;;;7.07;81.85
78892;BME280;68368;51.728;5.248;2023-05-27T03:12:16;102920.54;;;7.07;82.07
78892;BME280;68368;51.728;5.248;2023-05-27T03:14:19;102918.04;;;7.05;82.22
78892;BME280;68368;51.728;5.248;2023-05-27T03:16:23;102915.34;;;7.04;81.87
78892;BME280;68368;51.728;5.248;2023-05-27T03:18:27;102911.40;;;7.02;82.39
78892;BME280;68368;51.728;5.248;2023-05-27T03:20:30;102912.45;;;7.02;82.49
78892;BME280;68368;51.728;5.248;2023-05-27T03:22:33;102912.77;;;7.01;82.48
78892;BME280;68368;51.728;5.248;2023-05-27T03:24:36;102914.64;;;7.00;82.10
78892;BME280;68368;51.728;5.248;2023-05-27T03:26:47;102909.95;;;6.97;82.23
78892;BME280;68368;51.728;5.248;2023-05-27T03:28:50;102904.90;;;6.94;82.43
78892;BME280;68368;51.728;5.248;2023-05-27T03:30:54;102900.84;;;6.94;82.70
78892;BME280;68368;51.728;5.248;2023-05-27T03:32:57;102900.13;;;6.94;82.51
78892;BME280;68368;51.728;5.248;2023-05-27T03:35:01;102901.08;;;6.95;82.94
78892;BME280;68368;51.728;5.248;2023-05-27T03:37:05;102901.83;;;6.97;83.48
78892;BME280;68368;51.728;5.248;2023-05-27T03:39:08;102904.45;;;7.01;82.80
78892;BME280;68368;51.728;5.248;2023-05-27T03:41:11;102897.61;;;7.02;82.96
78892;BME280;68368;51.728;5.248;2023-05-27T03:43:16;102896.53;;;7.07;82.66
78892;BME280;68368;51.728;5.248;2023-05-27T03:45:20;102895.39;;;7.09;82.31
78892;BME280;68368;51.728;5.248;2023-05-27T03:47:23;102897.09;;;7.12;82.27
78892;BME280;68368;51.728;5.248;2023-05-27T03:49:26;102894.89;;;7.15;82.14
78892;BME280;68368;51.728;5.248;2023-05-27T03:51:29;102889.02;;;7.18;81.90
78892;BME280;68368;51.728;5.248;2023-05-27T03:53:33;102886.86;;;7.27;81.85
78892;BME280;68368;51.728;5.248;2023-05-27T03:55:37;102891.00;;;7.39;81.79
78892;BME280;68368;51.728;5.248;2023-05-27T03:57:41;102882.98;;;7.51;81.42
78892;BME280;68368;51.728;5.248;2023-05-27T03:59:45;102878.92;;;7.67;80.81
78892;BME280;68368;51.728;5.248;2023-05-27T04:01:48;102880.40;;;7.85;80.11
78892;BME280;68368;51.728;5.248;2023-05-27T04:03:53;102879.25;;;8.03;79.79
78892;BME280;68368;51.728;5.248;2023-05-27T04:05:56;102875.49;;;8.23;79.33
78892;BME280;68368;51.728;5.248;2023-05-27T04:07:59;102879.13;;;8.48;78.53
78892;BME280;68368;51.728;5.248;2023-05-27T04:10:04;102876.91;;;8.73;77.82
78892;BME280;68368;51.728;5.248;2023-05-27T04:12:08;102877.75;;;9.01;77.13
78892;BME280;68368;51.728;5.248;2023-05-27T04:14:12;102876.80;;;9.31;76.28
78892;BME280;68368;51.728;5.248;2023-05-27T04:16:15;102876.88;;;9.59;75.12
78892;BME280;68368;51.728;5.248;2023-05-27T04:18:19;102883.31;;;9.88;74.26
78892;BME280;68368;51.728;5.248;2023-05-27T04:20:22;102878.05;;;10.19;73.65
78892;BME280;68368;51.728;5.248;2023-05-27T04:22:25;102877.38;;;10.50;72.18
78892;BME280;68368;51.728;5.248;2023-05-27T04:24:29;102878.38;;;10.79;71.00
78892;BME280;68368;51.728;5.248;2023-05-27T04:26:32;102873.36;;;11.10;70.40
78892;BME280;68368;51.728;5.248;2023-05-27T04:28:35;102871.31;;;11.42;68.81
78892;BME280;68368;51.728;5.248;2023-05-27T04:30:38;102869.60;;;11.74;68.33
78892;BME280;68368;51.728;5.248;2023-05-27T04:32:42;102866.30;;;12.09;67.11
78892;BME280;68368;51.728;5.248;2023-05-27T04:34:46;102861.95;;;12.39;65.23
78892;BME280;68368;51.728;5.248;2023-05-27T04:36:49;102861.34;;;12.70;64.21
78892;BME280;68368;51.728;5.248;2023-05-27T04:38:53;102859.90;;;12.97;62.97
78892;BME280;68368;51.728;5.248;2023-05-27T04:40:56;102858.46;;;13.25;62.67
78892;BME280;68368;51.728;5.248;2023-05-27T04:42:59;102857.35;;;13.54;61.38
78892;BME280;68368;51.728;5.248;2023-05-27T04:45:03;102856.95;;;13.87;60.87
78892;BME280;68368;51.728;5.248;2023-05-27T04:47:07;102853.44;;;14.16;58.91
78892;BME280;68368;51.728;5.248;2023-05-27T04:49:13;102852.49;;;14.35;57.76
78892;BME280;68368;51.728;5.248;2023-05-27T04:51:16;102855.90;;;14.60;57.30
78892;BME280;68368;51.728;5.248;2023-05-27T04:53:20;102857.27;;;14.84;56.14
78892;BME280;68368;51.728;5.248;2023-05-27T04:55:24;102856.30;;;15.13;55.62
78892;BME280;68368;51.728;5.248;2023-05-27T04:57:27;102858.17;;;15.43;54.90
78892;BME280;68368;51.728;5.248;2023-05-27T04:59:31;102849.48;;;15.77;53.64
78892;BME280;68368;51.728;5.248;2023-05-27T05:01:34;102850.55;;;16.05;53.06
78892;BME280;68368;51.728;5.248;2023-05-27T05:03:37;102846.20;;;16.37;52.44
78892;BME280;68368;51.728;5.248;2023-05-27T05:05:40;102841.48;;;16.62;50.55
78892;BME280;68368;51.728;5.248;2023-05-27T05:07:44;102844.98;;;16.96;50.72
78892;BME280;68368;51.728;5.248;2023-05-27T05:09:49;102847.66;;;17.31;48.87
78892;BME280;68368;51.728;5.248;2023-05-27T05:11:52;102844.77;;;17.60;47.27
78892;BME280;68368;51.728;5.248;2023-05-27T05:13:58;102838.70;;;17.82;46.93
78892;BME280;68368;51.728;5.248;2023-05-27T05:16:02;102837.97;;;18.05;46.30
78892;BME280;68368;51.728;5.248;2023-05-27T05:18:05;102835.31;;;18.37;45.77
78892;BME280;68368;51.728;5.248;2023-05-27T05:20:12;102838.23;;;18.65;44.80
78892;BME280;68368;51.728;5.248;2023-05-27T05:22:15;102838.88;;;18.88;43.98
78892;BME280;68368;51.728;5.248;2023-05-27T05:24:21;102838.81;;;19.07;43.51
78892;BME280;68368;51.728;5.248;2023-05-27T05:26:25;102836.48;;;19.44;43.96
78892;BME280;68368;51.728;5.248;2023-05-27T05:28:28;102828.39;;;20.09;43.55
78892;BME280;68368;51.728;5.248;2023-05-27T05:30:31;102826.20;;;20.68;42.31
78892;BME280;68368;51.728;5.248;2023-05-27T05:32:34;102828.86;;;21.12;40.28
78892;BME280;68368;51.728;5.248;2023-05-27T05:34:39;102833.39;;;21.19;38.82
78892;BME280;68368;51.728;5.248;2023-05-27T05:36:42;102829.66;;;21.41;39.52
78892;BME280;68368;51.728;5.248;2023-05-27T05:38:45;102826.61;;;21.85;39.49
78892;BME280;68368;51.728;5.248;2023-05-27T05:40:51;102828.61;;;22.39;37.96
78892;BME280;68368;51.728;5.248;2023-05-27T05:42:54;102834.04;;;22.53;35.90
78892;BME280;68368;51.728;5.248;2023-05-27T05:44:58;102832.30;;;22.50;35.80
78892;BME280;68368;51.728;5.248;2023-05-27T05:47:01;102826.92;;;22.42;35.90
78892;BME280;68368;51.728;5.248;2023-05-27T05:49:04;102825.33;;;22.53;36.35
78892;BME280;68368;51.728;5.248;2023-05-27T05:51:08;102822.36;;;22.93;36.37
78892;BME280;68368;51.728;5.248;2023-05-27T05:53:11;102819.34;;;23.21;34.79
78892;BME280;68368;51.728;5.248;2023-05-27T05:55:17;102810.88;;;23.25;34.58
78892;BME280;68368;51.728;5.248;2023-05-27T05:57:20;102817.83;;;23.17;34.15
78892;BME280;68368;51.728;5.248;2023-05-27T05:59:25;102814.27;;;22.97;34.06
78892;BME280;68368;51.728;5.248;2023-05-27T06:01:32;102815.29;;;23.23;34.95
78892;BME280;68368;51.728;5.248;2023-05-27T06:03:38;102814.45;;;23.60;34.08
78892;BME280;68368;51.728;5.248;2023-05-27T06:05:42;102820.56;;;23.79;33.47
78892;BME280;68368;51.728;5.248;2023-05-27T06:07:46;102827.52;;;23.93;33.16
78892;BME280;68368;51.728;5.248;2023-05-27T06:09:51;102822.58;;;24.09;32.73
78892;BME280;68368;51.728;5.248;2023-05-27T06:11:56;102821.77;;;24.22;32.65
78892;BME280;68368;51.728;5.248;2023-05-27T06:13:59;102819.91;;;24.38;32.49
78892;BME280;68368;51.728;5.248;2023-05-27T06:16:03;102814.58;;;24.41;32.13
78892;BME280;68368;51.728;5.248;2023-05-27T06:18:06;102812.98;;;24.59;32.35
78892;BME280;68368;51.728;5.248;2023-05-27T06:20:10;102807.89;;;24.74;31.34
78892;BME280;68368;51.728;5.248;2023-05-27T06:22:14;102807.91;;;24.83;31.57
78892;BME280;68368;51.728;5.248;2023-05-27T06:24:19;102805.61;;;24.86;31.24
78892;BME280;68368;51.728;5.248;2023-05-27T06:26:22;102800.67;;;24.68;31.09
78892;BME280;68368;51.728;5.248;2023-05-27T06:28:26;102798.42;;;24.65;31.34
78892;BME280;68368;51.728;5.248;2023-05-27T06:30:31;102791.99;;;24.62;31.33
78892;BME280;68368;51.728;5.248;2023-05-27T06:32:34;102787.63;;;24.62;31.32
78892;BME280;68368;51.728;5.248;2023-05-27T06:34:38;102790.97;;;24.41;31.13
78892;BME280;68368;51.728;5.248;2023-05-27T06:36:41;102791.86;;;24.21;31.54
78892;BME280;68368;51.728;5.248;2023-05-27T06:38:44;102791.08;;;24.33;31.85
78892;BME280;68368;51.728;5.248;2023-05-27T06:40:48;102785.72;;;24.55;31.87
78892;BME280;68368;51.728;5.248;2023-05-27T06:42:51;102787.08;;;24.91;31.68
78892;BME280;68368;51.728;5.248;2023-05-27T06:44:54;102787.64;;;25.32;31.47
78892;BME280;68368;51.728;5.248;2023-05-27T06:47:00;102786.58;;;25.40;30.65
78892;BME280;68368;51.728;5.248;2023-05-27T06:49:06;102783.34;;;25.56;30.62
78892;BME280;68368;51.728;5.248;2023-05-27T06:51:09;102786.95;;;25.70;30.24
78892;BME280;68368;51.728;5.248;2023-05-27T06:53:13;102783.44;;;25.75;30.04
78892;BME280;68368;51.728;5.248;2023-05-27T06:55:17;102777.36;;;25.82;29.81
78892;BME280;68368;51.728;5.248;2023-05-27T06:57:21;102778.66;;;25.68;29.63
78892;BME280;68368;51.728;5.248;2023-05-27T06:59:25;102776.94;;;25.53;30.01
78892;BME280;68368;51.728;5.248;2023-05-27T07:01:29;102778.65;;;25.51;30.05
78892;BME280;68368;51.728;5.248;2023-05-27T07:03:35;102775.66;;;25.52;29.83
78892;BME280;68368;51.728;5.248;2023-05-27T07:05:40;102769.62;;;25.58;29.89
78892;BME280;68368;51.728;5.248;2023-05-27T07:07:43;102773.53;;;25.56;29.81
78892;BME280;68368;51.728;5.248;2023-05-27T07:09:47;102768.83;;;25.59;30.18
78892;BME280;68368;51.728;5.248;2023-05-27T07:11:51;102767.19;;;25.60;29.89
78892;BME280;68368;51.728;5.248;2023-05-27T07:13:54;102763.23;;;25.67;30.11
78892;BME280;68368;51.728;5.248;2023-05-27T07:15:58;102763.70;;;25.86;30.07
78892;BME280;68368;51.728;5.248;2023-05-27T07:18:09;102764.67;;;26.10;29.58
78892;BME280;68368;51.728;5.248;2023-05-27T07:20:13;102763.79;;;26.17;29.29
78892;BME280;68368;51.728;5.248;2023-05-27T07:22:16;102762.25;;;26.19;28.95
78892;BME280;68368;51.728;5.248;2023-05-27T07:24:19;102761.98;;;26.05;28.99
78892;BME280;68368;51.728;5.248;2023-05-27T07:26:23;102763.71;;;26.03;29.63
78892;BME280;68368;51.728;5.248;2023-05-27T07:28:26;102758.80;;;26.19;29.38
78892;BME280;68368;51.728;5.248;2023-05-27T07:30:30;102761.43;;;26.09;29.04
78892;BME280;68368;51.728;5.248;2023-05-27T07:32:34;102756.98;;;25.99;29.39
78892;BME280;68368;51.728;5.248;2023-05-27T07:34:37;102757.04;;;25.97;29.68
78892;BME280;68368;51.728;5.248;2023-05-27T07:36:40;102757.89;;;26.03;29.53
78892;BME280;68368;51.728;5.248;2023-05-27T07:38:47;102756.27;;;25.94;29.51
78892;BME280;68368;51.728;5.248;2023-05-27T07:40:50;102752.36;;;25.79;29.88
78892;BME280;68368;51.728;5.248;2023-05-27T07:42:54;102751.07;;;25.88;30.31
78892;BME280;68368;51.728;5.248;2023-05-27T07:45:02;102743.80;;;25.79;29.86
78892;BME280;68368;51.728;5.248;2023-05-27T07:47:05;102736.41;;;25.69;30.14
78892;BME280;68368;51.728;5.248;2023-05-27T07:49:09;102734.24;;;25.65;30.22
78892;BME280;68368;51.728;5.248;2023-05-27T07:51:12;102734.77;;;25.77;30.24
78892;BME280;68368;51.728;5.248;2023-05-27T07:53:16;102736.43;;;25.94;30.20
78892;BME280;68368;51.728;5.248;2023-05-27T07:55:19;102733.46;;;26.15;30.32
78892;BME280;68368;51.728;5.248;2023-05-27T07:57:23;102731.39;;;26.21;29.82
78892;BME280;68368;51.728;5.248;2023-05-27T07:59:27;102732.73;;;26.15;29.75
78892;BME280;68368;51.728;5.248;2023-05-27T08:01:31;102725.02;;;26.13;29.75
78892;BME280;68368;51.728;5.248;2023-05-27T08:03:34;102723.17;;;26.13;29.73
78892;BME280;68368;51.728;5.248;2023-05-27T08:05:38;102722.27;;;26.09;29.85
78892;BME280;68368;51.728;5.248;2023-05-27T08:07:44;102726.63;;;26.01;29.64
78892;BME280;68368;51.728;5.248;2023-05-27T08:09:49;102722.16;;;25.99;29.87
78892;BME280;68368;51.728;5.248;2023-05-27T08:11:52;102718.02;;;26.07;29.90
78892;BME280;68368;51.728;5.248;2023-05-27T08:13:56;102717.91;;;26.05;29.93
78892;BME280;68368;51.728;5.248;2023-05-27T08:15:59;102714.92;;;25.78;30.03
78892;BME280;68368;51.728;5.248;2023-05-27T08:18:03;102712.21;;;25.65;30.86
78892;BME280;68368;51.728;5.248;2023-05-27T08:20:10;102707.17;;;25.84;31.12
78892;BME280;68368;51.728;5.248;2023-05-27T08:22:15;102707.27;;;26.11;30.67
78892;BME280;68368;51.728;5.248;2023-05-27T08:24:21;102706.35;;;26.35;30.86
78892;BME280;68368;51.728;5.248;2023-05-27T08:26:23;102704.16;;;26.39;29.72
78892;BME280;68368;51.728;5.248;2023-05-27T08:28:29;102703.54;;;26.13;30.08
78892;BME280;68368;51.728;5.248;2023-05-27T08:30:34;102701.14;;;26.06;30.62
78892;BME280;68368;51.728;5.248;2023-05-27T08:32:37;102694.56;;;25.98;30.37
78892;BME280;68368;51.728;5.248;2023-05-27T08:34:40;102691.79;;;25.83;30.24
78892;BME280;68368;51.728;5.248;2023-05-27T08:36:43;102689.08;;;25.78;30.64
78892;BME280;68368;51.728;5.248;2023-05-27T08:38:49;102685.00;;;25.84;30.89
78892;BME280;68368;51.728;5.248;2023-05-27T08:40:55;102688.69;;;25.79;30.80
78892;BME280;68368;51.728;5.248;2023-05-27T08:42:57;102680.36;;;25.57;30.99
78892;BME280;68368;51.728;5.248;2023-05-27T08:45:00;102680.17;;;25.23;31.45
78892;BME280;68368;51.728;5.248;2023-05-27T08:47:05;102679.23;;;24.75;31.81
78892;BME280;68368;51.728;5.248;2023-05-27T08:49:10;102674.60;;;24.31;32.69
78892;BME280;68368;51.728;5.248;2023-05-27T08:51:15;102668.41;;;23.83;33.66
78892;BME280;68368;51.728;5.248;2023-05-27T08:53:18;102667.06;;;23.39;34.37
78892;BME280;68368;51.728;5.248;2023-05-27T08:55:22;102670.80;;;22.92;35.14
78892;BME280;68368;51.728;5.248;2023-05-27T08:57:29;102670.91;;;22.48;36.08
78892;BME280;68368;51.728;5.248;2023-05-27T08:59:34;102668.73;;;21.92;36.84
78892;BME280;68368;51.728;5.248;2023-05-27T09:01:38;102669.02;;;21.56;37.75
78892;BME280;68368;51.728;5.248;2023-05-27T09:03:42;102668.92;;;21.39;38.56
78892;BME280;68368;51.728;5.248;2023-05-27T09:05:48;102669.33;;;21.29;38.63
78892;BME280;68368;51.728;5.248;2023-05-27T09:07:51;102664.16;;;21.41;38.83
78892;BME280;68368;51.728;5.248;2023-05-27T09:09:58;102663.95;;;21.56;38.76
78892;BME280;68368;51.728;5.248;2023-05-27T09:12:04;102657.73;;;21.78;38.76
78892;BME280;68368;51.728;5.248;2023-05-27T09:14:06;102656.29;;;22.04;38.68
78892;BME280;68368;51.728;5.248;2023-05-27T09:16:09;102656.09;;;22.30;37.99
78892;BME280;68368;51.728;5.248;2023-05-27T09:18:12;102650.93;;;22.44;37.22
78892;BME280;68368;51.728;5.248;2023-05-27T09:20:16;102649.20;;;22.53;37.40
78892;BME280;68368;51.728;5.248;2023-05-27T09:22:25;102647.84;;;22.85;37.58
78892;BME280;68368;51.728;5.248;2023-05-27T09:24:29;102645.92;;;23.11;36.94
78892;BME280;68368;51.728;5.248;2023-05-27T09:26:34;102648.12;;;23.32;36.42
78892;BME280;68368;51.728;5.248;2023-05-27T09:28:40;102646.81;;;23.48;35.88
78892;BME280;68368;51.728;5.248;2023-05-27T09:30:43;102644.23;;;23.54;35.33
78892;BME280;68368;51.728;5.248;2023-05-27T09:32:50;102641.91;;;23.58;35.01
78892;BME280;68368;51.728;5.248;2023-05-27T09:34:54;102637.11;;;23.76;35.35
78892;BME280;68368;51.728;5.248;2023-05-27T09:36:58;102634.11;;;23.99;35.68
78892;BME280;68368;51.728;5.248;2023-05-27T09:39:04;102633.73;;;24.22;35.18
78892;BME280;68368;51.728;5.248;2023-05-27T09:41:07;102627.08;;;24.25;34.04
78892;BME280;68368;51.728;5.248;2023-05-27T09:43:14;102629.86;;;24.24;34.33
78892;BME280;68368;51.728;5.248;2023-05-27T09:45:19;102624.85;;;24.32;34.84
78892;BME280;68368;51.728;5.248;2023-05-27T09:47:23;102625.26;;;24.40;34.17
78892;BME280;68368;51.728;5.248;2023-05-27T09:49:27;102624.81;;;24.37;34.10
78892;BME280;68368;51.728;5.248;2023-05-27T09:51:33;102623.55;;;24.47;34.15
78892;BME280;68368;51.728;5.248;2023-05-27T09:53:39;102618.10;;;24.60;33.96
78892;BME280;68368;51.728;5.248;2023-05-27T09:55:44;102610.80;;;24.57;33.34
78892;BME280;68368;51.728;5.248;2023-05-27T09:57:53;102614.05;;;24.48;33.32
78892;BME280;68368;51.728;5.248;2023-05-27T09:59:57;102610.15;;;24.46;33.51
78892;BME280;68368;51.728;5.248;2023-05-27T10:02:03;102603.59;;;24.51;33.74
78892;BME280;68368;51.728;5.248;2023-05-27T10:04:13;102606.22;;;24.66;33.87
78892;BME280;68368;51.728;5.248;2023-05-27T10:06:17;102604.77;;;24.84;33.40
78892;BME280;68368;51.728;5.248;2023-05-27T10:08:23;102607.25;;;24.90;32.68
78892;BME280;68368;51.728;5.248;2023-05-27T10:10:28;102604.20;;;24.97;33.22
78892;BME280;68368;51.728;5.248;2023-05-27T10:12:34;102605.27;;;25.11;32.77
78892;BME280;68368;51.728;5.248;2023-05-27T10:14:39;102607.02;;;25.22;32.99
78892;BME280;68368;51.728;5.248;2023-05-27T10:16:53;102607.02;;;25.42;32.58
78892;BME280;68368;51.728;5.248;2023-05-27T10:19:01;102603.39;;;25.46;32.22
78892;BME280;68368;51.728;5.248;2023-05-27T10:21:08;102594.83;;;25.42;31.62
78892;BME280;68368;51.728;5.248;2023-05-27T10:23:14;102595.30;;;25.36;32.03
78892;BME280;68368;51.728;5.248;2023-05-27T10:25:16;102589.80;;;25.33;32.01
78892;BME280;68368;51.728;5.248;2023-05-27T10:27:19;102588.73;;;25.24;32.04
78892;BME280;68368;51.728;5.248;2023-05-27T10:29:23;102592.48;;;25.21;31.96
78892;BME280;68368;51.728;5.248;2023-05-27T10:31:31;102585.73;;;25.25;31.67
78892;BME280;68368;51.728;5.248;2023-05-27T10:33:37;102583.55;;;25.34;31.73
78892;BME280;68368;51.728;5.248;2023-05-27T10:35:43;102579.88;;;25.39;31.54
78892;BME280;68368;51.728;5.248;2023-05-27T10:37:48;102580.83;;;25.46;31.83
78892;BME280;68368;51.728;5.248;2023-05-27T10:39:58;102572.52;;;25.57;31.92
78892;BME280;68368;51.728;5.248;2023-05-27T10:42:02;102571.55;;;25.59;32.15
78892;BME280;68368;51.728;5.248;2023-05-27T10:44:09;102567.33;;;25.63;32.40
78892;BME280;68368;51.728;5.248;2023-05-27T10:46:16;102569.67;;;25.63;31.74
78892;BME280;68368;51.728;5.248;2023-05-27T10:48:29;102556.61;;;25.35;31.42
78892;BME280;68368;51.728;5.248;2023-05-27T10:50:36;102565.05;;;25.25;31.89
78892;BME280;68368;51.728;5.248;2023-05-27T10:52:43;102563.22;;;25.29;32.35
78892;BME280;68368;51.728;5.248;2023-05-27T10:54:47;102566.14;;;25.33;31.80